Time;durP1;ratioP1;P1;durP2;ratioP2;P2;SDS_P1;SDS_P2;PMS_P1;PMS_P2;Temp;Humidity;BMP_temperature;BMP_pressure;BME280_temperature;BME280_humidity;BME280_pressure;Samples;Min_cycle;Max_cycle;Signal;HPM_P1;HPM_P2
2024/01/30 00:00:04;;;;;;;86.28;81.85;;;;;;;;;;5032625;28;20033;-47
2024/01/30 00:02:31;;;;;;;81.93;77.82;;;;;;;;;;5034129;28;20356;-47
2024/01/30 00:04:57;;;;;;;85.47;81.07;;;;;;;;;;5030341;28;20041;-48
2024/01/30 00:07:22;;;;;;;79.22;75.22;;;;;;;;;;5032803;28;20422;-48
2024/01/30 00:09:48;;;;;;;78.88;74.82;;;;;;;;;;5029560;28;20124;-50
2024/01/30 00:12:13;;;;;;;80.53;76.35;;;;;;;;;;5030438;28;20024;-49
2024/01/30 00:14:43;;;;;;;79.18;74.50;;;;;;;;;;5033867;28;20366;-48
2024/01/30 00:17:08;;;;;;;75.10;71.25;;;;;;;;;;5032155;28;20442;-50
2024/01/30 00:19:33;;;;;;;75.13;71.07;;;;;;;;;;5032679;28;20029;-50
2024/01/30 00:21:59;;;;;;;73.60;69.20;;;;;;;;;;5032100;28;20038;-49
2024/01/30 00:24:24;;;;;;;75.15;71.22;;;;;;;;;;5032542;28;20021;-49
2024/01/30 00:26:49;;;;;;;75.90;72.10;;;;;;;;;;5033342;28;20151;-49
2024/01/30 00:29:19;;;;;;;76.90;73.00;;;;;;;;;;5032768;28;20309;-51
2024/01/30 00:31:45;;;;;;;83.07;78.13;;;;;;;;;;5031376;28;20498;-52
2024/01/30 00:34:10;;;;;;;80.35;75.93;;;;;;;;;;5031493;28;20120;-50
2024/01/30 00:36:36;;;;;;;77.47;73.18;;;;;;;;;;5036034;28;20223;-47
2024/01/30 00:39:05;;;;;;;76.15;72.30;;;;;;;;;;5030900;28;20124;-51
2024/01/30 00:41:31;;;;;;;82.85;78.50;;;;;;;;;;5032315;28;20048;-50
2024/01/30 00:43:56;;;;;;;83.22;79.03;;;;;;;;;;5029228;28;20095;-50
2024/01/30 00:46:22;;;;;;;84.80;80.47;;;;;;;;;;5030635;28;20033;-49
2024/01/30 00:48:47;;;;;;;86.82;82.50;;;;;;;;;;5031612;28;20111;-53
2024/01/30 00:51:12;;;;;;;84.10;79.75;;;;;;;;;;5029727;28;20038;-51
2024/01/30 00:53:37;;;;;;;87.47;82.97;;;;;;;;;;5033648;28;20059;-48
2024/01/30 00:56:03;;;;;;;86.15;81.78;;;;;;;;;;5028907;28;20536;-50
2024/01/30 00:58:28;;;;;;;85.97;81.47;;;;;;;;;;5032145;28;20557;-52
2024/01/30 01:00:54;;;;;;;88.13;83.45;;;;;;;;;;5035730;28;20032;-49
2024/01/30 01:03:19;;;;;;;87.22;82.68;;;;;;;;;;5037458;28;20064;-49
2024/01/30 01:05:44;;;;;;;83.85;79.70;;;;;;;;;;5038887;28;20036;-49
2024/01/30 01:08:10;;;;;;;82.10;77.65;;;;;;;;;;5039521;28;20661;-48
2024/01/30 01:10:35;;;;;;;77.93;73.85;;;;;;;;;;5039494;28;20521;-51
2024/01/30 01:13:00;;;;;;;77.10;73.25;;;;;;;;;;5033065;28;20046;-52
2024/01/30 01:15:26;;;;;;;68.88;65.35;;;;;;;;;;5037275;28;20415;-52
2024/01/30 01:17:51;;;;;;;64.28;60.83;;;;;;;;;;5038911;28;20182;-51
2024/01/30 01:20:16;;;;;;;66.22;62.72;;;;;;;;;;5037745;28;20486;-51
2024/01/30 01:22:42;;;;;;;69.97;66.32;;;;;;;;;;5038712;28;20083;-52
2024/01/30 01:25:08;;;;;;;63.20;59.85;;;;;;;;;;5036679;28;20476;-50
2024/01/30 01:27:34;;;;;;;63.95;60.35;;;;;;;;;;5039361;28;20297;-48
2024/01/30 01:30:00;;;;;;;57.95;54.65;;;;;;;;;;5033974;28;20371;-52
2024/01/30 01:32:25;;;;;;;55.20;52.30;;;;;;;;;;5038729;28;20040;-50
2024/01/30 01:34:51;;;;;;;59.40;55.45;;;;;;;;;;5040217;28;20467;-51
2024/01/30 01:37:16;;;;;;;57.75;54.58;;;;;;;;;;5040010;28;20034;-52
2024/01/30 01:39:41;;;;;;;55.90;52.72;;;;;;;;;;5031682;28;20048;-49
2024/01/30 01:42:07;;;;;;;59.50;56.22;;;;;;;;;;5038575;28;20038;-48
2024/01/30 01:44:32;;;;;;;57.83;54.22;;;;;;;;;;5037215;28;20041;-48
2024/01/30 01:46:57;;;;;;;66.68;62.78;;;;;;;;;;5037482;28;20052;-50
2024/01/30 01:49:26;;;;;;;67.03;63.42;;;;;;;;;;5036545;28;20050;-49
2024/01/30 01:51:56;;;;;;;62.95;59.50;;;;;;;;;;5038535;28;20336;-50
2024/01/30 01:54:22;;;;;;;68.40;64.72;;;;;;;;;;5036543;28;20107;-52
2024/01/30 01:56:48;;;;;;;70.95;67.32;;;;;;;;;;5031834;28;20036;-50
2024/01/30 01:59:13;;;;;;;71.30;67.25;;;;;;;;;;5038956;28;20025;-50
2024/01/30 02:01:43;;;;;;;72.88;68.82;;;;;;;;;;5039663;28;20041;-49
2024/01/30 02:04:08;;;;;;;75.55;71.55;;;;;;;;;;5027612;28;20406;-48
2024/01/30 02:06:37;;;;;;;70.38;66.75;;;;;;;;;;5037303;28;20038;-50
2024/01/30 02:09:04;;;;;;;67.68;64.13;;;;;;;;;;5034425;28;20572;-50
2024/01/30 02:11:30;;;;;;;65.20;61.75;;;;;;;;;;5038276;28;20033;-47
2024/01/30 02:13:55;;;;;;;59.22;56.08;;;;;;;;;;5034243;28;20418;-51
2024/01/30 02:16:20;;;;;;;58.35;54.97;;;;;;;;;;5032985;28;20033;-48
2024/01/30 02:18:47;;;;;;;56.97;54.00;;;;;;;;;;5036615;28;20378;-47
2024/01/30 02:21:15;;;;;;;57.92;54.78;;;;;;;;;;5033912;28;20045;-47
2024/01/30 02:23:41;;;;;;;59.35;56.33;;;;;;;;;;5036149;28;20732;-49
2024/01/30 02:26:07;;;;;;;64.55;61.15;;;;;;;;;;5034226;28;20124;-47
2024/01/30 02:28:32;;;;;;;70.82;67.22;;;;;;;;;;5033948;28;20464;-48
2024/01/30 02:30:57;;;;;;;67.47;63.95;;;;;;;;;;5035215;28;20060;-47
2024/01/30 02:33:23;;;;;;;65.72;62.28;;;;;;;;;;5029197;28;20048;-48
2024/01/30 02:35:48;;;;;;;69.57;66.07;;;;;;;;;;5033346;28;20044;-48
2024/01/30 02:38:15;;;;;;;74.75;70.78;;;;;;;;;;5030734;28;20120;-48
2024/01/30 02:40:41;;;;;;;73.90;69.57;;;;;;;;;;5035373;28;20038;-47
2024/01/30 02:43:06;;;;;;;79.38;74.95;;;;;;;;;;5033833;28;20051;-49
2024/01/30 02:45:31;;;;;;;70.00;66.50;;;;;;;;;;5034985;28;20360;-48
2024/01/30 02:47:57;;;;;;;74.00;70.20;;;;;;;;;;5033524;28;20509;-48
2024/01/30 02:50:22;;;;;;;80.22;76.22;;;;;;;;;;5032240;28;20030;-48
2024/01/30 02:52:47;;;;;;;77.90;73.90;;;;;;;;;;5033271;28;20052;-49
2024/01/30 02:55:13;;;;;;;77.45;73.35;;;;;;;;;;5033101;28;20355;-49
2024/01/30 02:57:39;;;;;;;76.68;72.78;;;;;;;;;;5033848;28;20138;-50
2024/01/30 03:00:06;;;;;;;78.60;74.53;;;;;;;;;;5035942;28;20491;-47
2024/01/30 03:02:32;;;;;;;75.85;71.93;;;;;;;;;;5032377;28;20044;-48
2024/01/30 03:04:58;;;;;;;73.57;69.80;;;;;;;;;;5032162;28;20029;-47
2024/01/30 03:07:23;;;;;;;75.47;71.45;;;;;;;;;;5033950;28;20382;-50
2024/01/30 03:09:49;;;;;;;76.20;72.30;;;;;;;;;;5037213;28;20025;-48
2024/01/30 03:12:14;;;;;;;77.60;73.60;;;;;;;;;;5033154;28;20738;-48
2024/01/30 03:14:40;;;;;;;79.07;75.00;;;;;;;;;;5028654;28;20099;-48
2024/01/30 03:17:05;;;;;;;76.38;72.53;;;;;;;;;;5032152;28;20072;-47
2024/01/30 03:19:30;;;;;;;78.50;74.53;;;;;;;;;;5031899;28;20069;-51
2024/01/30 03:21:56;;;;;;;79.10;75.13;;;;;;;;;;5032829;28;20029;-47
2024/01/30 03:24:21;;;;;;;82.00;77.88;;;;;;;;;;5035206;28;20035;-49
2024/01/30 03:26:46;;;;;;;78.97;75.03;;;;;;;;;;5032676;28;20045;-49
2024/01/30 03:29:12;;;;;;;76.88;73.00;;;;;;;;;;5035628;28;20471;-49
2024/01/30 03:31:37;;;;;;;78.50;74.50;;;;;;;;;;5035608;28;20033;-49
2024/01/30 03:34:02;;;;;;;74.22;70.47;;;;;;;;;;5032727;28;20025;-51
2024/01/30 03:36:28;;;;;;;74.43;70.63;;;;;;;;;;5033083;28;20045;-49
2024/01/30 03:38:53;;;;;;;76.60;72.50;;;;;;;;;;5033243;28;20040;-49
2024/01/30 03:41:19;;;;;;;77.38;73.32;;;;;;;;;;5033858;28;20075;-48
2024/01/30 03:43:44;;;;;;;76.93;72.93;;;;;;;;;;5033283;28;20074;-50
2024/01/30 03:46:12;;;;;;;74.35;70.40;;;;;;;;;;5033447;28;20116;-52
2024/01/30 03:48:37;;;;;;;79.03;74.95;;;;;;;;;;5034080;28;20033;-51
2024/01/30 03:51:03;;;;;;;79.63;75.60;;;;;;;;;;5035149;28;20119;-51
2024/01/30 03:53:28;;;;;;;78.10;74.00;;;;;;;;;;5031221;28;20125;-50
2024/01/30 03:55:53;;;;;;;77.50;73.50;;;;;;;;;;5031963;28;20416;-50
2024/01/30 03:58:19;;;;;;;79.10;74.88;;;;;;;;;;5030518;28;20065;-49
2024/01/30 04:00:44;;;;;;;77.35;73.30;;;;;;;;;;5034013;28;20034;-52
2024/01/30 04:03:09;;;;;;;77.18;73.15;;;;;;;;;;5036730;28;20477;-49
2024/01/30 04:05:35;;;;;;;80.57;76.40;;;;;;;;;;5034318;28;20043;-51
2024/01/30 04:08:00;;;;;;;80.90;76.80;;;;;;;;;;5032958;28;20130;-51
2024/01/30 04:10:26;;;;;;;75.72;71.60;;;;;;;;;;5030624;28;20045;-52
2024/01/30 04:12:51;;;;;;;78.20;74.30;;;;;;;;;;5032802;28;20130;-50
2024/01/30 04:15:18;;;;;;;74.28;70.43;;;;;;;;;;5029413;28;20037;-51
2024/01/30 04:17:43;;;;;;;72.10;68.43;;;;;;;;;;5028489;28;20116;-48
2024/01/30 04:20:14;;;;;;;73.47;69.78;;;;;;;;;;5034968;28;20497;-52
2024/01/30 04:22:39;;;;;;;67.88;64.40;;;;;;;;;;5032020;28;20029;-49
2024/01/30 04:25:05;;;;;;;70.90;66.68;;;;;;;;;;5034309;28;20036;-51
2024/01/30 04:27:30;;;;;;;71.63;67.90;;;;;;;;;;5032378;28;20037;-48
2024/01/30 04:29:55;;;;;;;68.93;65.05;;;;;;;;;;5032561;28;20120;-50
2024/01/30 04:32:20;;;;;;;70.47;66.93;;;;;;;;;;5030370;28;20354;-51
2024/01/30 04:34:46;;;;;;;67.60;64.07;;;;;;;;;;5032831;28;20350;-49
2024/01/30 04:37:11;;;;;;;62.55;59.35;;;;;;;;;;5030037;28;20021;-49
2024/01/30 04:39:37;;;;;;;65.32;61.90;;;;;;;;;;5032834;28;20032;-49
2024/01/30 04:42:02;;;;;;;65.13;61.60;;;;;;;;;;5031449;28;20048;-49
2024/01/30 04:44:28;;;;;;;63.40;60.13;;;;;;;;;;5033278;28;20041;-48
2024/01/30 04:46:53;;;;;;;64.40;61.10;;;;;;;;;;5032802;28;20033;-51
2024/01/30 04:49:18;;;;;;;61.60;58.42;;;;;;;;;;5030773;28;20040;-49
2024/01/30 04:51:44;;;;;;;63.63;60.30;;;;;;;;;;5032208;28;20166;-50
2024/01/30 04:54:09;;;;;;;61.15;57.80;;;;;;;;;;5035444;28;20029;-50
2024/01/30 04:56:35;;;;;;;64.15;60.85;;;;;;;;;;5032269;28;20072;-48
2024/01/30 04:59:02;;;;;;;66.68;63.15;;;;;;;;;;5031335;28;20592;-50
2024/01/30 05:01:27;;;;;;;65.47;62.08;;;;;;;;;;5034777;28;20021;-51
2024/01/30 05:03:53;;;;;;;72.75;68.78;;;;;;;;;;5028669;28;20055;-50
2024/01/30 05:06:27;;;;;;;71.43;67.65;;;;;;;;;;5030479;28;20374;-48
2024/01/30 05:08:53;;;;;;;67.95;64.47;;;;;;;;;;5029234;28;20037;-57
2024/01/30 05:11:19;;;;;;;69.00;65.50;;;;;;;;;;5030660;28;20065;-57
2024/01/30 05:13:44;;;;;;;68.88;65.32;;;;;;;;;;5033691;28;20120;-55
2024/01/30 05:16:09;;;;;;;72.75;69.07;;;;;;;;;;5032103;28;20651;-56
2024/01/30 05:18:35;;;;;;;69.57;65.80;;;;;;;;;;5033247;28;20477;-55
2024/01/30 05:21:00;;;;;;;66.45;63.08;;;;;;;;;;5030696;28;20538;-55
2024/01/30 05:23:25;;;;;;;67.55;64.13;;;;;;;;;;5030412;28;20095;-54
2024/01/30 05:25:51;;;;;;;68.72;64.85;;;;;;;;;;5030465;28;20034;-56
2024/01/30 05:28:16;;;;;;;66.72;63.30;;;;;;;;;;5029050;28;20033;-55
2024/01/30 05:30:42;;;;;;;66.93;63.38;;;;;;;;;;5033080;28;20029;-57
2024/01/30 05:33:07;;;;;;;70.15;66.32;;;;;;;;;;5031809;28;20038;-53
2024/01/30 05:35:32;;;;;;;69.10;65.50;;;;;;;;;;5032625;28;20033;-54
2024/01/30 05:37:58;;;;;;;68.43;64.95;;;;;;;;;;5029473;28;20102;-55
2024/01/30 05:40:23;;;;;;;67.30;63.92;;;;;;;;;;5030775;28;20041;-55
2024/01/30 05:42:48;;;;;;;71.18;67.45;;;;;;;;;;5030089;28;20065;-57
2024/01/30 05:45:13;;;;;;;71.38;67.70;;;;;;;;;;5031340;28;20078;-55
2024/01/30 05:47:39;;;;;;;68.78;65.13;;;;;;;;;;5035481;28;20098;-57
2024/01/30 05:50:05;;;;;;;65.88;62.42;;;;;;;;;;5026403;28;20056;-55
2024/01/30 05:52:30;;;;;;;68.10;64.60;;;;;;;;;;5032217;28;20040;-60
2024/01/30 05:54:56;;;;;;;70.70;67.00;;;;;;;;;;5034865;28;20032;-57
2024/01/30 05:57:21;;;;;;;65.13;61.80;;;;;;;;;;5035916;28;20045;-56
2024/01/30 05:59:47;;;;;;;66.75;63.28;;;;;;;;;;5038421;28;20025;-58
2024/01/30 06:02:13;;;;;;;65.18;61.88;;;;;;;;;;5034540;28;20047;-58
2024/01/30 06:04:38;;;;;;;67.93;64.43;;;;;;;;;;5032967;28;20398;-57
2024/01/30 06:07:06;;;;;;;65.68;62.22;;;;;;;;;;5035440;28;20049;-57
2024/01/30 06:09:31;;;;;;;68.97;65.53;;;;;;;;;;5034653;28;20646;-58
2024/01/30 06:11:56;;;;;;;67.90;64.30;;;;;;;;;;5034896;28;20128;-59
2024/01/30 06:14:22;;;;;;;65.93;62.58;;;;;;;;;;5034709;28;20064;-57
2024/01/30 06:16:47;;;;;;;63.30;59.95;;;;;;;;;;5037692;28;20413;-58
2024/01/30 06:19:13;;;;;;;74.10;70.32;;;;;;;;;;5028514;28;20033;-59
2024/01/30 06:21:38;;;;;;;67.10;63.72;;;;;;;;;;5033257;28;20068;-58
2024/01/30 06:24:04;;;;;;;62.80;59.50;;;;;;;;;;5030972;28;20025;-58
2024/01/30 06:26:29;;;;;;;61.95;58.70;;;;;;;;;;5034939;28;20025;-59
2024/01/30 06:28:55;;;;;;;62.55;59.35;;;;;;;;;;5034296;28;20037;-58
2024/01/30 06:31:20;;;;;;;62.08;58.88;;;;;;;;;;5031813;28;20374;-60
2024/01/30 06:33:49;;;;;;;68.97;65.38;;;;;;;;;;5031031;28;20037;-53
2024/01/30 06:36:15;;;;;;;61.72;58.53;;;;;;;;;;5023533;28;20047;-52
2024/01/30 06:38:41;;;;;;;64.38;61.08;;;;;;;;;;5033859;28;20459;-50
2024/01/30 06:41:06;;;;;;;66.38;62.88;;;;;;;;;;5033053;28;20079;-54
2024/01/30 06:43:31;;;;;;;64.30;60.70;;;;;;;;;;5032727;28;20041;-53
2024/01/30 06:45:57;;;;;;;63.17;59.90;;;;;;;;;;5033471;28;20047;-53
2024/01/30 06:48:22;;;;;;;64.55;61.17;;;;;;;;;;5034040;28;20025;-50
2024/01/30 06:50:49;;;;;;;69.28;65.75;;;;;;;;;;5033903;28;20425;-49
2024/01/30 06:53:14;;;;;;;66.65;63.22;;;;;;;;;;5035580;28;20041;-48
2024/01/30 06:55:40;;;;;;;67.68;64.18;;;;;;;;;;5032361;28;20148;-53
2024/01/30 06:58:05;;;;;;;66.72;63.03;;;;;;;;;;5036313;28;20037;-49
2024/01/30 07:00:31;;;;;;;66.80;62.95;;;;;;;;;;5034223;28;20049;-48
2024/01/30 07:02:56;;;;;;;65.45;61.85;;;;;;;;;;5031498;28;20083;-49
2024/01/30 07:05:21;;;;;;;66.40;61.85;;;;;;;;;;5032763;28;20435;-50
2024/01/30 07:07:47;;;;;;;65.85;62.47;;;;;;;;;;5033857;28;20037;-52
2024/01/30 07:10:12;;;;;;;62.80;59.58;;;;;;;;;;5033768;28;20045;-53
2024/01/30 07:12:38;;;;;;;64.85;61.08;;;;;;;;;;5031347;28;20443;-50
2024/01/30 07:15:04;;;;;;;62.28;59.00;;;;;;;;;;5033438;28;20060;-53
2024/01/30 07:17:29;;;;;;;70.05;66.20;;;;;;;;;;5033909;28;20227;-53
2024/01/30 07:19:54;;;;;;;63.28;60.00;;;;;;;;;;5034050;28;20152;-51
2024/01/30 07:22:20;;;;;;;66.45;63.03;;;;;;;;;;5033146;28;20029;-53
2024/01/30 07:24:47;;;;;;;61.15;57.83;;;;;;;;;;5031880;28;20056;-53
2024/01/30 07:27:14;;;;;;;58.25;55.25;;;;;;;;;;5033151;28;20044;-49
2024/01/30 07:29:39;;;;;;;60.78;57.65;;;;;;;;;;5033806;28;20046;-52
2024/01/30 07:32:05;;;;;;;62.58;59.35;;;;;;;;;;5029153;28;20033;-53
2024/01/30 07:34:30;;;;;;;65.45;62.15;;;;;;;;;;5033954;28;20052;-52
2024/01/30 07:36:56;;;;;;;65.80;62.42;;;;;;;;;;5031445;28;20037;-52
2024/01/30 07:39:21;;;;;;;61.60;58.40;;;;;;;;;;5033791;28;20032;-50
2024/01/30 07:41:46;;;;;;;62.63;59.28;;;;;;;;;;5029326;28;20080;-51
2024/01/30 07:44:12;;;;;;;62.72;59.53;;;;;;;;;;5034832;28;20115;-53
2024/01/30 07:46:37;;;;;;;64.95;61.45;;;;;;;;;;5031091;28;20027;-53
2024/01/30 07:49:02;;;;;;;62.90;59.42;;;;;;;;;;5031117;28;20447;-52
2024/01/30 07:51:29;;;;;;;66.75;63.40;;;;;;;;;;5031679;28;20037;-51
2024/01/30 07:53:55;;;;;;;69.47;65.65;;;;;;;;;;5032779;28;20100;-52
2024/01/30 07:56:20;;;;;;;67.45;64.05;;;;;;;;;;5033630;28;20605;-50
2024/01/30 07:58:45;;;;;;;67.47;63.97;;;;;;;;;;5034895;28;20060;-50
2024/01/30 08:01:11;;;;;;;65.38;62.08;;;;;;;;;;5033366;28;20021;-53
2024/01/30 08:03:36;;;;;;;66.97;63.55;;;;;;;;;;5030933;28;20033;-52
2024/01/30 08:06:03;;;;;;;64.85;61.45;;;;;;;;;;5032182;28;20461;-51
2024/01/30 08:08:28;;;;;;;65.38;61.78;;;;;;;;;;5032320;28;20496;-52
2024/01/30 08:10:53;;;;;;;68.15;64.43;;;;;;;;;;5031375;28;20033;-51
2024/01/30 08:13:19;;;;;;;65.13;61.55;;;;;;;;;;5032925;28;20060;-51
2024/01/30 08:15:44;;;;;;;64.72;61.38;;;;;;;;;;5032264;28;20470;-51
2024/01/30 08:18:09;;;;;;;69.45;65.90;;;;;;;;;;5030716;28;20029;-51
2024/01/30 08:20:35;;;;;;;66.57;62.85;;;;;;;;;;5031240;28;20029;-52
2024/01/30 08:23:00;;;;;;;69.00;65.32;;;;;;;;;;5031170;28;20045;-52
2024/01/30 08:25:26;;;;;;;67.65;64.28;;;;;;;;;;5033975;28;20064;-50
2024/01/30 08:27:51;;;;;;;75.75;71.85;;;;;;;;;;5033720;28;20467;-52
2024/01/30 08:30:17;;;;;;;71.38;67.55;;;;;;;;;;5033781;28;20092;-53
2024/01/30 08:32:42;;;;;;;62.85;59.55;;;;;;;;;;5027659;28;20033;-51
2024/01/30 08:35:08;;;;;;;66.93;63.42;;;;;;;;;;5031040;28;20047;-53
2024/01/30 08:37:34;;;;;;;69.93;66.32;;;;;;;;;;5031868;28;20033;-48
2024/01/30 08:39:59;;;;;;;66.82;62.58;;;;;;;;;;5033614;28;20316;-50
2024/01/30 08:42:25;;;;;;;72.32;68.50;;;;;;;;;;5031353;28;20040;-52
2024/01/30 08:44:53;;;;;;;68.03;64.60;;;;;;;;;;5032895;28;20033;-54
2024/01/30 08:47:18;;;;;;;73.30;69.55;;;;;;;;;;5031298;28;20045;-50
2024/01/30 08:49:44;;;;;;;72.00;68.38;;;;;;;;;;5029080;28;20458;-50
2024/01/30 08:52:10;;;;;;;68.15;64.45;;;;;;;;;;5033030;28;20029;-52
2024/01/30 08:54:35;;;;;;;68.70;65.20;;;;;;;;;;5030478;28;20056;-52
2024/01/30 08:57:01;;;;;;;70.60;66.82;;;;;;;;;;5032554;28;20504;-51
2024/01/30 08:59:26;;;;;;;74.07;70.20;;;;;;;;;;5032311;28;20333;-51
2024/01/30 09:01:54;;;;;;;77.35;73.10;;;;;;;;;;5031591;28;20051;-52
2024/01/30 09:04:23;;;;;;;71.18;67.47;;;;;;;;;;5030785;28;20040;-50
2024/01/30 09:06:48;;;;;;;75.45;71.55;;;;;;;;;;5029351;28;20487;-50
2024/01/30 09:09:14;;;;;;;70.72;67.05;;;;;;;;;;5030659;28;20178;-51
2024/01/30 09:11:40;;;;;;;72.38;68.65;;;;;;;;;;5027742;28;20478;-49
2024/01/30 09:14:05;;;;;;;73.38;69.57;;;;;;;;;;5032076;28;20071;-51
2024/01/30 09:16:30;;;;;;;70.45;66.65;;;;;;;;;;5033653;28;20410;-52
2024/01/30 09:18:55;;;;;;;72.05;67.93;;;;;;;;;;5031528;28;20033;-53
2024/01/30 09:21:21;;;;;;;67.57;63.90;;;;;;;;;;5033458;28;20049;-50
2024/01/30 09:23:46;;;;;;;76.25;72.35;;;;;;;;;;5035944;28;20483;-51
2024/01/30 09:26:12;;;;;;;71.93;68.25;;;;;;;;;;5034195;28;20399;-51
2024/01/30 09:28:38;;;;;;;67.35;63.92;;;;;;;;;;5033499;28;20056;-52
2024/01/30 09:31:03;;;;;;;76.28;72.30;;;;;;;;;;5034163;28;20616;-49
2024/01/30 09:33:29;;;;;;;75.45;71.13;;;;;;;;;;5034868;28;20032;-50
2024/01/30 09:35:54;;;;;;;74.07;69.97;;;;;;;;;;5034212;28;20447;-50
2024/01/30 09:38:19;;;;;;;80.97;76.90;;;;;;;;;;5034827;28;20038;-50
2024/01/30 09:40:53;;;;;;;84.32;80.07;;;;;;;;;;5032571;28;20040;-48
2024/01/30 09:43:23;;;;;;;87.30;82.88;;;;;;;;;;5033204;28;20059;-50
2024/01/30 09:45:50;;;;;;;95.22;90.40;;;;;;;;;;5035828;28;20021;-48
2024/01/30 09:48:15;;;;;;;101.13;95.70;;;;;;;;;;5033457;28;20033;-49
2024/01/30 09:50:41;;;;;;;108.20;102.75;;;;;;;;;;5033747;28;20112;-49
2024/01/30 09:53:08;;;;;;;101.85;96.55;;;;;;;;;;5036153;28;20052;-48
2024/01/30 09:55:36;;;;;;;98.82;93.88;;;;;;;;;;5036296;28;20033;-49
2024/01/30 09:58:01;;;;;;;94.32;89.40;;;;;;;;;;5036345;28;20462;-51
2024/01/30 10:00:27;;;;;;;101.47;96.10;;;;;;;;;;5034436;28;20098;-52
2024/01/30 10:02:53;;;;;;;104.43;99.05;;;;;;;;;;5034915;28;20034;-51
2024/01/30 10:05:19;;;;;;;103.10;97.80;;;;;;;;;;5031460;28;20037;-50
2024/01/30 10:07:57;;;;;;;114.25;108.13;;;;;;;;;;5031098;28;20044;-50
2024/01/30 10:10:26;;;;;;;109.18;103.60;;;;;;;;;;5031375;28;20483;-51
2024/01/30 10:12:51;;;;;;;116.03;110.20;;;;;;;;;;5026854;28;20718;-50
2024/01/30 10:15:18;;;;;;;105.70;100.40;;;;;;;;;;5026787;28;20040;-52
2024/01/30 10:17:45;;;;;;;104.55;99.18;;;;;;;;;;5026933;28;20063;-51
2024/01/30 10:20:10;;;;;;;113.03;107.13;;;;;;;;;;5030660;28;20091;-53
2024/01/30 10:22:36;;;;;;;121.10;114.95;;;;;;;;;;5031051;28;20507;-50
2024/01/30 10:25:01;;;;;;;123.65;117.05;;;;;;;;;;5031933;28;20069;-52
2024/01/30 10:27:27;;;;;;;110.18;104.55;;;;;;;;;;5033194;28;20048;-54
2024/01/30 10:29:52;;;;;;;111.50;104.07;;;;;;;;;;5028898;28;20052;-57
2024/01/30 10:32:19;;;;;;;107.95;102.55;;;;;;;;;;5025869;28;20374;-48
2024/01/30 10:34:45;;;;;;;100.85;95.75;;;;;;;;;;5027151;28;20416;-50
2024/01/30 10:37:12;;;;;;;116.15;110.30;;;;;;;;;;5030820;28;20102;-53
2024/01/30 10:39:43;;;;;;;94.78;89.97;;;;;;;;;;5029282;28;20510;-53
2024/01/30 10:42:17;;;;;;;88.70;84.20;;;;;;;;;;5030767;28;20124;-51
2024/01/30 10:45:00;;;;;;;85.00;80.47;;;;;;;;;;5029134;28;20418;-52
2024/01/30 10:47:29;;;;;;;81.85;77.63;;;;;;;;;;5028128;28;20187;-54
2024/01/30 10:49:55;;;;;;;88.53;83.85;;;;;;;;;;5028369;28;20025;-55
2024/01/30 10:52:23;;;;;;;90.35;85.50;;;;;;;;;;5031408;28;20036;-49
2024/01/30 10:54:50;;;;;;;76.85;72.90;;;;;;;;;;5030111;28;20102;-51
2024/01/30 10:57:16;;;;;;;82.47;78.13;;;;;;;;;;5031681;28;20037;-51
2024/01/30 10:59:43;;;;;;;75.90;71.80;;;;;;;;;;5032392;28;20052;-51
2024/01/30 11:02:10;;;;;;;79.22;75.15;;;;;;;;;;5033036;28;20071;-53
2024/01/30 11:04:41;;;;;;;81.07;76.97;;;;;;;;;;5033528;28;20601;-49
2024/01/30 11:07:23;;;;;;;83.85;79.35;;;;;;;;;;5034152;28;20119;-50
2024/01/30 11:09:58;;;;;;;72.90;69.10;;;;;;;;;;5029475;28;20032;-54
2024/01/30 11:12:25;;;;;;;66.72;63.30;;;;;;;;;;5035846;28;20033;-53
2024/01/30 11:15:06;;;;;;;67.78;64.28;;;;;;;;;;5029996;28;20033;-51
2024/01/30 11:17:49;;;;;;;60.80;57.38;;;;;;;;;;5030812;28;20041;-53
2024/01/30 11:20:22;;;;;;;59.83;56.72;;;;;;;;;;5030671;28;20490;-52
2024/01/30 11:22:51;;;;;;;55.33;52.33;;;;;;;;;;5029928;28;20056;-50
2024/01/30 11:25:17;;;;;;;55.40;52.38;;;;;;;;;;5030101;28;20324;-53
2024/01/30 11:27:44;;;;;;;52.80;50.03;;;;;;;;;;5031166;28;20079;-52
2024/01/30 11:30:10;;;;;;;49.47;46.45;;;;;;;;;;5031762;28;20029;-53
2024/01/30 11:32:36;;;;;;;42.28;39.97;;;;;;;;;;5030665;28;20044;-52
2024/01/30 11:35:06;;;;;;;39.53;37.42;;;;;;;;;;5035412;28;20300;-51
2024/01/30 11:37:32;;;;;;;35.30;33.38;;;;;;;;;;5033345;28;20037;-53
2024/01/30 11:39:58;;;;;;;32.03;29.90;;;;;;;;;;5030460;28;20048;-54
2024/01/30 11:42:24;;;;;;;32.30;30.10;;;;;;;;;;5033259;28;21075;-49
2024/01/30 11:44:50;;;;;;;34.53;32.53;;;;;;;;;;5032205;28;20069;-52
2024/01/30 11:47:16;;;;;;;32.22;30.33;;;;;;;;;;5031639;28;20072;-51
2024/01/30 11:49:43;;;;;;;31.35;29.65;;;;;;;;;;5032214;28;20044;-51
2024/01/30 11:52:08;;;;;;;25.80;24.27;;;;;;;;;;5035179;28;20102;-47
2024/01/30 11:54:34;;;;;;;27.95;26.35;;;;;;;;;;5033226;28;20032;-49
2024/01/30 11:56:59;;;;;;;27.95;26.30;;;;;;;;;;5031605;28;20402;-49
2024/01/30 11:59:25;;;;;;;28.80;26.92;;;;;;;;;;5033887;28;20040;-50
2024/01/30 12:01:52;;;;;;;28.75;26.42;;;;;;;;;;5033103;28;20036;-50
2024/01/30 12:04:17;;;;;;;28.00;26.10;;;;;;;;;;5012617;28;20460;-50
2024/01/30 12:06:43;;;;;;;26.52;24.92;;;;;;;;;;5033072;28;20056;-52
2024/01/30 12:09:09;;;;;;;26.00;24.50;;;;;;;;;;5034079;28;20823;-53
2024/01/30 12:11:49;;;;;;;26.38;24.88;;;;;;;;;;5033812;28;20370;-51
2024/01/30 12:14:16;;;;;;;26.63;24.88;;;;;;;;;;5031113;28;20041;-50
2024/01/30 12:16:41;;;;;;;25.90;24.42;;;;;;;;;;5032981;28;20039;-51
2024/01/30 12:19:07;;;;;;;26.45;24.55;;;;;;;;;;5028366;28;20029;-49
2024/01/30 12:21:33;;;;;;;28.10;26.33;;;;;;;;;;5032472;28;20044;-48
2024/01/30 12:24:00;;;;;;;25.92;24.42;;;;;;;;;;5031202;28;20400;-49
2024/01/30 12:26:25;;;;;;;26.67;25.08;;;;;;;;;;5033523;28;20029;-51
2024/01/30 12:28:55;;;;;;;24.95;23.45;;;;;;;;;;5033134;28;20037;-49
2024/01/30 12:31:27;;;;;;;24.52;23.13;;;;;;;;;;5032010;28;20409;-49
2024/01/30 12:33:53;;;;;;;25.67;24.17;;;;;;;;;;5030287;28;20021;-50
2024/01/30 12:36:19;;;;;;;26.17;24.48;;;;;;;;;;5031105;28;20040;-52
2024/01/30 12:38:44;;;;;;;24.55;22.95;;;;;;;;;;5030374;28;20029;-51
2024/01/30 12:41:10;;;;;;;24.13;22.75;;;;;;;;;;5029931;28;20440;-50
2024/01/30 12:43:36;;;;;;;25.55;24.02;;;;;;;;;;5033852;28;20048;-50
2024/01/30 12:46:02;;;;;;;28.27;25.55;;;;;;;;;;5032246;28;20757;-49
2024/01/30 12:48:29;;;;;;;26.30;24.80;;;;;;;;;;5033247;28;20029;-51
2024/01/30 12:50:55;;;;;;;24.10;22.70;;;;;;;;;;5030641;28;20506;-50
2024/01/30 12:53:20;;;;;;;27.55;25.65;;;;;;;;;;5033509;28;20069;-52
2024/01/30 12:55:46;;;;;;;24.23;22.80;;;;;;;;;;5031863;28;20030;-50
2024/01/30 12:58:11;;;;;;;24.92;23.42;;;;;;;;;;5029446;28;20758;-50
2024/01/30 13:00:36;;;;;;;31.00;29.30;;;;;;;;;;5031593;28;20492;-49
2024/01/30 13:03:02;;;;;;;30.25;28.52;;;;;;;;;;5029917;28;20378;-48
2024/01/30 13:05:27;;;;;;;26.67;25.17;;;;;;;;;;5032246;28;20044;-51
2024/01/30 13:07:53;;;;;;;29.73;28.13;;;;;;;;;;5031060;28;20033;-50
2024/01/30 13:10:19;;;;;;;35.67;33.58;;;;;;;;;;5032916;28;20044;-53
2024/01/30 13:12:44;;;;;;;39.20;36.95;;;;;;;;;;5032212;28;20033;-60
2024/01/30 13:15:11;;;;;;;40.00;37.63;;;;;;;;;;5033392;28;20068;-52
2024/01/30 13:17:36;;;;;;;42.60;40.40;;;;;;;;;;5030375;28;20189;-49
2024/01/30 13:20:03;;;;;;;42.17;39.90;;;;;;;;;;5032112;28;20037;-53
2024/01/30 13:22:29;;;;;;;41.03;38.80;;;;;;;;;;5033019;28;20059;-50
2024/01/30 13:24:54;;;;;;;41.53;39.22;;;;;;;;;;5029188;28;20217;-53
2024/01/30 13:27:20;;;;;;;40.42;38.20;;;;;;;;;;5030415;28;20029;-53
2024/01/30 13:29:46;;;;;;;42.72;40.17;;;;;;;;;;5031851;28;20053;-52
2024/01/30 13:32:11;;;;;;;47.90;45.30;;;;;;;;;;5029753;28;20072;-51
2024/01/30 13:34:36;;;;;;;40.95;38.58;;;;;;;;;;5034558;28;20041;-49
2024/01/30 13:37:02;;;;;;;37.80;35.63;;;;;;;;;;5034029;28;20040;-50
2024/01/30 13:39:28;;;;;;;38.00;35.53;;;;;;;;;;5032348;28;20388;-51
2024/01/30 13:41:54;;;;;;;37.35;35.35;;;;;;;;;;5030729;28;20029;-51
2024/01/30 13:44:20;;;;;;;38.83;36.63;;;;;;;;;;5032670;28;20349;-52
2024/01/30 13:46:46;;;;;;;38.80;36.70;;;;;;;;;;5030906;28;20158;-50
2024/01/30 13:49:11;;;;;;;38.60;36.15;;;;;;;;;;5029794;28;20608;-50
2024/01/30 13:51:37;;;;;;;40.92;38.67;;;;;;;;;;5029254;28;20040;-53
2024/01/30 13:54:02;;;;;;;39.65;37.45;;;;;;;;;;5029390;28;21464;-54
2024/01/30 13:56:28;;;;;;;36.58;34.47;;;;;;;;;;5030106;28;20092;-54
2024/01/30 13:58:55;;;;;;;36.42;34.08;;;;;;;;;;5031110;28;20116;-51
2024/01/30 14:01:20;;;;;;;35.85;33.75;;;;;;;;;;5026360;28;20048;-52
2024/01/30 14:03:46;;;;;;;33.88;31.98;;;;;;;;;;5028730;28;20032;-51
2024/01/30 14:06:12;;;;;;;41.35;39.05;;;;;;;;;;5030858;28;20052;-52
2024/01/30 14:08:37;;;;;;;38.33;36.13;;;;;;;;;;5033148;28;21762;-53